Hastings, West Virginia
Current Conditions -  °F | °C
As of 10:53 AM on Thursday 29 Jan 2015 (Local Time) from KCKB Reporting Station
Scattered Clouds Scattered Clouds  
Wind Chill:   Ceiling: Unl
Heat Index:   Visibility: 10mi
Dew Point: -4°   Wind: 0mph
Humidity: 67%   Direction: NA
Pressure: 29.96"   Gusts: NA
Location:  39.5697°N, 80.6462°W
Report Text: KCKB 291553Z 00000KT 10SM FEW090 SCT120 01/M04 A2996 RMK AO2 SLP153 T00111044
Loading
Personal Weather Stations






























Interactive Weather Map New forecast layout! Learn more

10-Day Weather Forecast

Advertisements
Track Severe Weather on mobile